| time (UTC) | temp C | wind direction | speed KPH | gust KPH | rain 1hr cm | rain 24hr cm | rain mn cm | humidity % | barometer mb |
| 20260507131007 | 12 | 238 | 1.6 | 9.7 | 0.00 | 1.68 | 0.74 | 80 | 1016.5 |
| 20260507130506 | 12 | 259 | 3.2 | 8.0 | 0.00 | 1.68 | 0.74 | 80 | 1016.5 |
| 20260507130034 | 12 | 226 | 1.6 | 6.4 | 0.00 | 1.68 | 0.74 | 81 | 1016.5 |
| 20260507125509 | 12 | 221 | 0.0 | 6.4 | 0.00 | 1.68 | 0.74 | 82 | 1016.4 |
| 20260507125007 | 12 | 181 | 1.6 | 6.4 | 0.00 | 1.68 | 0.74 | 82 | 1016.4 |
| 20260507124504 | 12 | 222 | 1.6 | 4.8 | 0.00 | 1.68 | 0.74 | 82 | 1016.4 |
| 20260507124007 | 12 | 214 | 1.6 | 6.4 | 0.00 | 1.68 | 0.74 | 83 | 1016.4 |
| 20260507123504 | 11 | 235 | 1.6 | 6.4 | 0.00 | 1.68 | 0.74 | 83 | 1016.3 |
| 20260507123006 | 11 | 237 | 1.6 | 8.0 | 0.00 | 1.68 | 0.74 | 83 | 1016.3 |
| 20260507122503 | 11 | 227 | 3.2 | 8.0 | 0.00 | 1.68 | 0.74 | 83 | 1016.2 |
| 20260507122006 | 11 | 224 | 1.6 | 6.4 | 0.00 | 1.68 | 0.74 | 83 | 1016.2 |
| 20260507121509 | 11 | 228 | 1.6 | 8.0 | 0.00 | 1.68 | 0.74 | 82 | 1016.2 |
| 20260507121006 | 12 | 223 | 3.2 | 8.0 | 0.00 | 1.68 | 0.74 | 81 | 1016.1 |
| 20260507120507 | 12 | 243 | 3.2 | 6.4 | 0.00 | 1.68 | 0.74 | 80 | 1016.1 |
| 20260507120016 | 12 | 212 | 1.6 | 3.2 | 0.00 | 1.68 | 0.74 | 82 | 1016.1 |
| 20260507120011 | 11 | 249 | 3.2 | 8.0 | 0.00 | 1.70 | 0.76 | 86 | 1016.0 |
| 20260507115507 | 12 | 231 | 1.6 | 4.8 | 0.00 | 1.68 | 0.74 | 82 | 1016.1 |
| 20260507115006 | 11 | 216 | 1.6 | 6.4 | 0.00 | 1.68 | 0.74 | 82 | 1016.2 |
| 20260507114522 | 11 | 352 | 1.6 | 6.4 | 0.00 | 1.68 | 0.74 | 85 | 1016.1 |
| 20260507114008 | 11 | 212 | 1.6 | 6.4 | 0.00 | 1.68 | 0.74 | 84 | 1016.2 |
| 20260507113509 | 11 | 248 | 1.6 | 6.4 | 0.00 | 1.68 | 0.74 | 86 | 1016.2 |
| 20260507113011 | 10 | 219 | 1.6 | 4.8 | 0.00 | 1.70 | 0.76 | 89 | 1016.1 |
| 20260507113003 | 11 | 240 | 1.6 | 6.4 | 0.00 | 1.68 | 0.74 | 85 | 1016.2 |
| 20260507112504 | 11 | 210 | 1.6 | 3.2 | 0.00 | 1.68 | 0.74 | 86 | 1016.2 |
| 20260507112006 | 10 | 232 | 0.0 | 3.2 | 0.00 | 1.68 | 0.74 | 88 | 1016.2 |
| 20260507111507 | 10 | 224 | 0.0 | 3.2 | 0.00 | 1.68 | 0.74 | 88 | 1016.2 |
| 20260507111004 | 10 | 243 | 0.0 | 3.2 | 0.00 | 1.68 | 0.74 | 89 | 1016.2 |
| 20260507110506 | 10 | 229 | 1.6 | 3.2 | 0.00 | 1.68 | 0.74 | 88 | 1016.2 |
| 20260507110015 | 10 | 221 | 0.0 | 3.2 | 0.00 | 1.68 | 0.74 | 89 | 1016.1 |
| 20260507110011 | 10 | 221 | 1.6 | 4.8 | 0.00 | 1.70 | 0.76 | 88 | 1016.0 |
| 20260507105506 | 10 | 234 | 0.0 | 1.6 | 0.00 | 1.68 | 0.74 | 89 | 1016.1 |
| 20260507105012 | 10 | 234 | 0.0 | 3.2 | 0.00 | 1.68 | 0.74 | 89 | 1016.1 |
| 20260507104517 | 10 | 234 | 0.0 | 3.2 | 0.00 | 1.68 | 0.74 | 88 | 1016.1 |
| 20260507104008 | 10 | 235 | 1.6 | 3.2 | 0.00 | 1.68 | 0.74 | 88 | 1016.1 |
| 20260507103509 | 10 | 238 | 0.0 | 4.8 | 0.00 | 1.68 | 0.74 | 88 | 1016.1 |
| 20260507103020 | 10 | 228 | 1.6 | 4.8 | 0.00 | 1.68 | 0.74 | 87 | 1016.1 |
| 20260507102509 | 10 | 223 | 1.6 | 4.8 | 0.00 | 1.68 | 0.74 | 87 | 1016.1 |
| 20260507102009 | 10 | 229 | 0.0 | 4.8 | 0.00 | 1.68 | 0.74 | 87 | 1016.1 |
| 20260507101526 | 10 | 224 | 1.6 | 6.4 | 0.00 | 1.68 | 0.74 | 87 | 1016.0 |
| 20260507101004 | 10 | 216 | 1.6 | 6.4 | 0.00 | 1.68 | 0.74 | 86 | 1016.0 |
| 20260507100506 | 10 | 224 | 1.6 | 4.8 | 0.00 | 1.68 | 0.74 | 87 | 1016.0 |
| 20260507100011 | 10 | 246 | 1.6 | 4.8 | 0.00 | 1.70 | 0.76 | 91 | 1015.5 |
| 20260507095503 | 10 | 219 | 0.0 | 1.6 | 0.00 | 1.68 | 0.74 | 89 | 1015.9 |
| 20260507095009 | 10 | 216 | 0.0 | 3.2 | 0.00 | 1.68 | 0.74 | 89 | 1015.8 |
| 20260507094514 | 10 | 217 | 0.0 | 4.8 | 0.00 | 1.68 | 0.74 | 89 | 1015.8 |
| 20260507094011 | 10 | 275 | 0.0 | 4.8 | 0.00 | 1.68 | 0.74 | 90 | 1015.7 |
| 20260507093507 | 10 | 251 | 0.0 | 4.8 | 0.00 | 1.68 | 0.74 | 90 | 1015.7 |
| 20260507093016 | 10 | 240 | 0.0 | 6.4 | 0.00 | 1.68 | 0.74 | 90 | 1015.6 |
| 20260507093010 | 10 | 225 | 4.8 | 11.3 | 0.00 | 1.70 | 0.76 | 90 | 1015.3 |
| 20260507092509 | 9 | 250 | 3.2 | 6.4 | 0.00 | 1.68 | 0.74 | 90 | 1015.6 |
| 20260507092008 | 9 | 213 | 1.6 | 6.4 | 0.00 | 1.68 | 0.74 | 90 | 1015.6 |
| 20260507091523 | 9 | 233 | 1.6 | 6.4 | 0.00 | 1.68 | 0.74 | 90 | 1015.5 |
| 20260507091009 | 9 | 243 | 3.2 | 6.4 | 0.00 | 1.68 | 0.74 | 90 | 1015.5 |
| 20260507090511 | 9 | 231 | 3.2 | 6.4 | 0.00 | 1.68 | 0.74 | 90 | 1015.4 |
| 20260507090025 | 10 | 241 | 3.2 | 6.4 | 0.00 | 1.68 | 0.74 | 90 | 1015.3 |
| 20260507090011 | 10 | 200 | 0.0 | 4.8 | 0.00 | 1.70 | 0.76 | 91 | 1015.0 |
| 20260507085509 | 9 | 238 | 0.0 | 4.8 | 0.00 | 1.68 | 0.74 | 90 | 1015.2 |
| 20260507085005 | 9 | 229 | 0.0 | 4.8 | 0.00 | 1.68 | 0.74 | 90 | 1015.1 |
| 20260507084514 | 9 | 229 | 0.0 | 4.8 | 0.00 | 1.68 | 0.74 | 90 | 1015.0 |
| 20260507084010 | 9 | 226 | 0.0 | 1.6 | 0.00 | 1.68 | 0.74 | 91 | 1015.0 |
| 20260507083507 | 9 | 200 | 0.0 | 3.2 | 0.00 | 1.68 | 0.74 | 91 | 1015.0 |
| 20260507083015 | 9 | 236 | 3.2 | 4.8 | 0.00 | 1.70 | 0.76 | 92 | 1014.8 |
| 20260507082507 | 9 | 233 | 0.0 | 1.6 | 0.00 | 1.68 | 0.74 | 91 | 1014.9 |
| 20260507082007 | 9 | 233 | 0.0 | 3.2 | 0.00 | 1.68 | 0.74 | 91 | 1014.9 |
| 20260507081522 | 9 | 226 | 0.0 | 4.8 | 0.00 | 1.68 | 0.74 | 91 | 1014.9 |
| 20260507081008 | 9 | 223 | 1.6 | 4.8 | 0.00 | 1.68 | 0.74 | 91 | 1014.8 |
| 20260507080511 | 9 | 223 | 0.0 | 3.2 | 0.00 | 1.68 | 0.74 | 91 | 1014.8 |
| 20260507080024 | 9 | 226 | 1.6 | 3.2 | 0.00 | 1.68 | 0.74 | 91 | 1014.7 |
| 20260507080015 | 9 | 223 | 3.2 | 8.0 | 0.00 | 1.70 | 0.76 | 92 | 1014.3 |
| 20260507075506 | 8 | 234 | 1.6 | 6.4 | 0.00 | 1.68 | 0.74 | 91 | 1014.6 |
| 20260507075011 | 8 | 243 | 0.0 | 6.4 | 0.00 | 1.68 | 0.74 | 91 | 1014.6 |
| 20260507074528 | 8 | 233 | 1.6 | 4.8 | 0.00 | 1.68 | 0.74 | 91 | 1014.5 |
| 20260507074014 | 8 | 223 | 1.6 | 4.8 | 0.00 | 1.68 | 0.74 | 91 | 1014.5 |
| 20260507073510 | 8 | 221 | 0.0 | 4.8 | 0.00 | 1.68 | 0.74 | 91 | 1014.4 |
| 20260507073014 | 8 | 221 | 1.6 | 4.8 | 0.00 | 1.68 | 0.74 | 91 | 1014.3 |
| 20260507072508 | 8 | 227 | 1.6 | 6.4 | 0.00 | 1.68 | 0.74 | 91 | 1014.2 |
| 20260507072007 | 8 | 221 | 0.0 | 6.4 | 0.00 | 1.68 | 0.74 | 91 | 1014.2 |
| 20260507071523 | 8 | 245 | 0.0 | 4.8 | 0.00 | 1.68 | 0.74 | 91 | 1014.2 |
| 20260507071011 | 8 | 218 | 0.0 | 4.8 | 0.00 | 1.68 | 0.74 | 91 | 1014.1 |
| 20260507070509 | 8 | 244 | 1.6 | 4.8 | 0.00 | 1.68 | 0.74 | 91 | 1014.1 |
| 20260507070025 | 8 | 215 | 0.0 | 4.8 | 0.00 | 1.68 | 0.74 | 91 | 1014.0 |
| 20260507070014 | 9 | 232 | 1.6 | 4.8 | 0.00 | 1.70 | 0.76 | 92 | 1013.9 |
| 20260507065508 | 8 | 218 | 1.6 | 4.8 | 0.00 | 1.68 | 0.74 | 91 | 1014.1 |
| 20260507065009 | 8 | 236 | 1.6 | 4.8 | 0.00 | 1.68 | 0.74 | 91 | 1013.9 |
| 20260507064535 | 8 | 237 | 1.6 | 3.2 | 0.00 | 1.68 | 0.74 | 92 | 1013.9 |
| 20260507064007 | 8 | 261 | 1.6 | 3.2 | 0.00 | 1.68 | 0.74 | 91 | 1013.9 |
| 20260507063508 | 8 | 197 | 0.0 | 4.8 | 0.00 | 1.68 | 0.74 | 92 | 1013.8 |
| 20260507063033 | 8 | 253 | 1.6 | 4.8 | 0.00 | 1.68 | 0.74 | 92 | 1013.7 |
| 20260507063014 | 9 | 222 | 0.0 | 4.8 | 0.00 | 1.70 | 0.76 | 92 | 1013.6 |
| 20260507062517 | 8 | 227 | 1.6 | 4.8 | 0.00 | 1.68 | 0.74 | 92 | 1013.7 |
| 20260507062010 | 8 | 255 | 0.0 | 3.2 | 0.00 | 1.68 | 0.74 | 92 | 1013.7 |
| 20260507061530 | 8 | 219 | 1.6 | 3.2 | 0.00 | 1.68 | 0.74 | 92 | 1013.7 |
| 20260507061009 | 8 | 223 | 0.0 | 3.2 | 0.00 | 1.68 | 0.74 | 92 | 1013.6 |
| 20260507060506 | 8 | 232 | 0.0 | 4.8 | 0.00 | 1.68 | 0.74 | 92 | 1013.6 |
| 20260507060020 | 8 | 221 | 1.6 | 4.8 | 0.00 | 1.68 | 0.74 | 92 | 1013.5 |
| 20260507060014 | 9 | 228 | 1.6 | 4.8 | 0.00 | 1.70 | 0.76 | 93 | 1013.3 |
| 20260507055508 | 8 | 254 | 0.0 | 4.8 | 0.00 | 1.68 | 0.74 | 92 | 1013.5 |
| 20260507055009 | 8 | 243 | 1.6 | 4.8 | 0.00 | 1.68 | 0.74 | 92 | 1013.5 |
| 20260507054524 | 8 | 269 | 1.6 | 4.8 | 0.00 | 1.68 | 0.74 | 92 | 1013.4 |
| 20260507054010 | 8 | 227 | 0.0 | 3.2 | 0.00 | 1.68 | 0.74 | 92 | 1013.4 |
| 20260507053509 | 8 | 229 | 0.0 | 3.2 | 0.00 | 1.68 | 0.74 | 92 | 1013.4 |
| 20260507053028 | 8 | 237 | 1.6 | 4.8 | 0.00 | 1.68 | 0.74 | 92 | 1013.3 |
| 20260507052510 | 8 | 221 | 0.0 | 4.8 | 0.00 | 1.68 | 0.74 | 92 | 1013.3 |
| 20260507052007 | 8 | 243 | 0.0 | 3.2 | 0.00 | 1.68 | 0.74 | 92 | 1013.2 |
| 20260507051529 | 8 | 240 | 1.6 | 3.2 | 0.00 | 1.68 | 0.74 | 92 | 1013.1 |
| 20260507051007 | 8 | 227 | 1.6 | 3.2 | 0.00 | 1.68 | 0.74 | 92 | 1013.1 |
| 20260507050511 | 8 | 230 | 0.0 | 1.6 | 0.00 | 1.68 | 0.74 | 92 | 1013.1 |
| 20260507050038 | 8 | 218 | 0.0 | 3.2 | 0.00 | 1.68 | 0.74 | 92 | 1013.0 |
| 20260507050013 | 8 | 228 | 0.0 | 3.2 | 0.03 | 1.70 | 0.76 | 92 | 1012.4 |
| 20260507045515 | 8 | 231 | 0.0 | 3.2 | 0.00 | 1.68 | 0.74 | 92 | 1013.0 |
| 20260507045008 | 8 | 239 | 0.0 | 1.6 | 0.00 | 1.68 | 0.74 | 92 | 1012.9 |
| 20260507044521 | 8 | 228 | 0.0 | 1.6 | 0.00 | 1.68 | 0.74 | 92 | 1012.8 |
| 20260507044011 | 8 | 228 | 0.0 | 1.6 | 0.00 | 1.68 | 0.74 | 92 | 1012.7 |
| 20260507043506 | 8 | 228 | 0.0 | 1.6 | 0.00 | 1.68 | 0.74 | 92 | 1012.6 |
| 20260507043026 | 8 | 229 | 0.0 | 1.6 | 0.00 | 1.68 | 0.74 | 92 | 1012.6 |
| 20260507043013 | 9 | 227 | 0.0 | 4.8 | 0.03 | 1.70 | 0.76 | 92 | 1012.1 |
| 20260507042509 | 8 | 229 | 0.0 | 1.6 | 0.00 | 1.68 | 0.74 | 92 | 1012.5 |
| 20260507042004 | 8 | 219 | 0.0 | 1.6 | 0.00 | 1.68 | 0.74 | 92 | 1012.5 |
| 20260507041520 | 8 | 219 | 0.0 | 6.4 | 0.00 | 1.70 | 0.74 | 92 | 1012.4 |
| 20260507041005 | 8 | 193 | 0.0 | 6.4 | 0.00 | 1.70 | 0.74 | 92 | 1012.4 |
| 20260507040504 | 8 | 227 | 0.0 | 3.2 | 0.00 | 1.70 | 0.74 | 92 | 1012.3 |
| 20260507040014 | 8 | 229 | 0.0 | 3.2 | 0.00 | 1.68 | 0.74 | 92 | 1012.4 |
| 20260507035504 | 8 | 245 | 0.0 | 3.2 | 0.00 | 1.68 | 0.74 | 92 | 1012.4 |
| 20260507035004 | 8 | 245 | 0.0 | 3.2 | 0.00 | 1.68 | 0.74 | 92 | 1012.2 |
| 20260507034504 | 8 | 217 | 1.6 | 3.2 | 0.00 | 1.68 | 0.74 | 92 | 1012.2 |
| 20260507034004 | 8 | 219 | 0.0 | 1.6 | 0.00 | 1.68 | 0.74 | 92 | 1012.2 |
| 20260507033504 | 8 | 237 | 0.0 | 1.6 | 0.00 | 1.68 | 0.74 | 92 | 1012.1 |
| 20260507033013 | 9 | 223 | 0.0 | 3.2 | 0.05 | 1.70 | 0.74 | 92 | 1011.6 |
| 20260507033005 | 8 | 242 | 0.0 | 1.6 | 0.00 | 1.68 | 0.74 | 92 | 1012.1 |
| 20260507032504 | 8 | 243 | 0.0 | 1.6 | 0.00 | 1.68 | 0.74 | 92 | 1012.0 |
| 20260507032003 | 8 | 243 | 0.0 | 3.2 | 0.00 | 1.68 | 0.74 | 92 | 1011.9 |
| 20260507031509 | 8 | 239 | 0.0 | 3.2 | 0.00 | 1.68 | 0.74 | 92 | 1011.9 |
| 20260507031004 | 8 | 237 | 0.0 | 1.6 | 0.00 | 1.68 | 0.74 | 92 | 1011.8 |
| 20260507030507 | 8 | 222 | 0.0 | 3.2 | 0.03 | 1.68 | 0.74 | 92 | 1011.8 |
| 20260507030018 | 8 | 222 | 0.0 | 3.2 | 0.03 | 1.68 | 0.74 | 92 | 1011.7 |
| 20260507030013 | 9 | 228 | 0.0 | 4.8 | 0.03 | 1.68 | 0.71 | 92 | 1011.5 |
| 20260507025505 | 8 | 235 | 1.6 | 3.2 | 0.03 | 1.68 | 0.74 | 91 | 1011.7 |
| 20260507025004 | 8 | 236 | 1.6 | 3.2 | 0.03 | 1.68 | 0.74 | 91 | 1011.7 |
| 20260507024522 | 8 | 215 | 0.0 | 1.6 | 0.03 | 1.68 | 0.74 | 91 | 1011.7 |
| 20260507024004 | 8 | 203 | 0.0 | 3.2 | 0.03 | 1.68 | 0.74 | 91 | 1011.7 |
| 20260507023505 | 8 | 239 | 0.0 | 3.2 | 0.00 | 1.68 | 0.71 | 91 | 1011.7 |
| 20260507023017 | 8 | 211 | 0.0 | 1.6 | 0.00 | 1.68 | 0.71 | 91 | 1011.6 |
| 20260507023013 | 9 | 232 | 0.0 | 4.8 | 0.03 | 1.65 | 0.71 | 92 | 1011.2 |
| 20260507022504 | 8 | 211 | 0.0 | 1.6 | 0.00 | 1.68 | 0.71 | 91 | 1011.6 |
| 20260507022004 | 8 | 204 | 0.0 | 1.6 | 0.00 | 1.68 | 0.71 | 91 | 1011.5 |
| 20260507021503 | 8 | 204 | 0.0 | 1.6 | 0.03 | 1.68 | 0.71 | 91 | 1011.5 |
| 20260507021003 | 8 | 224 | 0.0 | 3.2 | 0.03 | 1.68 | 0.71 | 91 | 1011.4 |
| 20260507020504 | 8 | 236 | 1.6 | 3.2 | 0.00 | 1.65 | 0.69 | 91 | 1011.4 |
| 20260507020012 | 9 | 224 | 0.0 | 3.2 | 0.05 | 1.65 | 0.71 | 92 | 1010.8 |
| 20260507020007 | 8 | 232 | 0.0 | 4.8 | 0.00 | 1.65 | 0.69 | 91 | 1011.3 |
| 20260507015508 | 8 | 232 | 0.0 | 4.8 | 0.00 | 1.65 | 0.69 | 91 | 1011.3 |
| 20260507015004 | 8 | 216 | 0.0 | 6.4 | 0.03 | 1.65 | 0.69 | 91 | 1011.2 |
| 20260507014514 | 8 | 245 | 0.0 | 6.4 | 0.03 | 1.65 | 0.69 | 91 | 1011.2 |
| 20260507014008 | 9 | 205 | 3.2 | 6.4 | 0.03 | 1.65 | 0.69 | 91 | 1011.2 |
| 20260507013504 | 9 | 254 | 0.0 | 4.8 | 0.05 | 1.65 | 0.69 | 92 | 1011.1 |
| 20260507013016 | 9 | 257 | 0.0 | 4.8 | 0.05 | 1.65 | 0.69 | 91 | 1011.0 |
| 20260507012506 | 9 | 236 | 0.0 | 1.6 | 0.05 | 1.65 | 0.69 | 92 | 1011.1 |
| 20260507012010 | 9 | 210 | 0.0 | 1.6 | 0.05 | 1.65 | 0.69 | 92 | 1011.1 |
| 20260507011523 | 9 | 217 | 0.0 | 6.4 | 0.05 | 1.63 | 0.66 | 92 | 1011.0 |
| 20260507011009 | 9 | 217 | 0.0 | 6.4 | 0.05 | 1.63 | 0.66 | 92 | 1011.0 |
| 20260507010504 | 9 | 244 | 1.6 | 3.2 | 0.05 | 1.63 | 0.66 | 92 | 1011.0 |
| 20260507010012 | 10 | 257 | 1.6 | 4.8 | 0.10 | 1.60 | 0.64 | 92 | 1010.7 |
| 20260507010008 | 9 | 238 | 0.0 | 1.6 | 0.05 | 1.63 | 0.66 | 92 | 1010.9 |
| 20260507005504 | 9 | 233 | 0.0 | 1.6 | 0.08 | 1.63 | 0.66 | 92 | 1010.9 |
| 20260507005009 | 9 | 233 | 0.0 | 1.6 | 0.05 | 1.60 | 0.64 | 92 | 1010.9 |
| 20260507004507 | 9 | 222 | 0.0 | 1.6 | 0.08 | 1.60 | 0.64 | 92 | 1010.9 |
| 20260507004005 | 10 | 258 | 0.0 | 3.2 | 0.08 | 1.60 | 0.64 | 92 | 1010.9 |
| 20260507003505 | 10 | 258 | 0.0 | 3.2 | 0.08 | 1.57 | 0.64 | 92 | 1010.9 |
| 20260507003012 | 10 | 217 | 0.0 | 3.2 | 0.23 | 1.57 | 0.61 | 92 | 1010.6 |
| 20260507003010 | 10 | 244 | 0.0 | 1.6 | 0.08 | 1.57 | 0.64 | 92 | 1010.8 |
| 20260507002505 | 10 | 245 | 0.0 | 1.6 | 0.10 | 1.57 | 0.64 | 92 | 1010.8 |
| 20260507002006 | 10 | 245 | 0.0 | 1.6 | 0.13 | 1.57 | 0.64 | 92 | 1010.8 |
| 20260507001518 | 10 | 219 | 0.0 | 1.6 | 0.15 | 1.57 | 0.61 | 92 | 1010.8 |
| 20260507001007 | 10 | 219 | 0.0 | 1.6 | 0.18 | 1.57 | 0.61 | 92 | 1010.8 |
| 20260507000506 | 10 | 219 | 0.0 | 1.6 | 0.20 | 1.57 | 0.61 | 92 | 1010.8 |
| 20260507000020 | 10 | 219 | 0.0 | 1.6 | 0.25 | 1.57 | 0.61 | 92 | 1010.8 |
| 20260506235509 | 10 | 219 | 0.0 | 1.6 | 0.25 | 1.55 | 0.58 | 92 | 1010.7 |
| 20260506235006 | 10 | 219 | 0.0 | 1.6 | 0.28 | 1.55 | 0.58 | 92 | 1010.8 |
| 20260506234508 | 10 | 219 | 0.0 | 1.6 | 0.30 | 1.52 | 0.56 | 92 | 1010.8 |
| 20260506234004 | 10 | 219 | 0.0 | 1.6 | 0.33 | 1.50 | 0.56 | 92 | 1010.9 |
| 20260506233507 | 10 | 219 | 0.0 | 4.8 | 0.33 | 1.50 | 0.53 | 92 | 1010.9 |
| 20260506233012 | 10 | 252 | 0.0 | 4.8 | 0.36 | 1.50 | 0.53 | 91 | 1010.9 |
| 20260506232504 | 10 | 215 | 0.0 | 3.2 | 0.38 | 1.47 | 0.51 | 91 | 1010.9 |
| 20260506232007 | 10 | 255 | 0.0 | 3.2 | 0.38 | 1.45 | 0.48 | 91 | 1010.8 |
| 20260506231516 | 10 | 227 | 0.0 | 1.6 | 0.36 | 1.40 | 0.46 | 91 | 1010.8 |
| 20260506231008 | 10 | 227 | 0.0 | 3.2 | 0.36 | 1.37 | 0.41 | 91 | 1010.8 |
| 20260506230506 | 10 | 228 | 0.0 | 3.2 | 0.36 | 1.35 | 0.38 | 91 | 1010.7 |
| 20260506230024 | 10 | 242 | 0.0 | 3.2 | 0.36 | 1.30 | 0.36 | 91 | 1010.7 |
| 20260506230011 | 10 | 239 | 1.6 | 11.3 | 0.43 | 1.14 | 0.18 | 91 | 1010.3 |
| 20260506225507 | 10 | 252 | 1.6 | 3.2 | 0.36 | 1.30 | 0.33 | 91 | 1010.7 |
| 20260506225007 | 10 | 211 | 0.0 | 3.2 | 0.36 | 1.24 | 0.28 | 91 | 1010.7 |
| 20260506224520 | 10 | 219 | 0.0 | 4.8 | 0.36 | 1.22 | 0.25 | 91 | 1010.6 |
| 20260506224006 | 10 | 233 | 0.0 | 4.8 | 0.36 | 1.17 | 0.20 | 91 | 1010.6 |
| 20260506223507 | 10 | 231 | 1.6 | 6.4 | 0.41 | 1.14 | 0.18 | 91 | 1010.6 |
| 20260506223011 | 10 | 248 | 4.8 | 14.5 | 0.53 | 0.97 | 0.00 | 91 | 1010.0 |
| 20260506223006 | 10 | 200 | 3.2 | 6.4 | 0.43 | 1.12 | 0.15 | 91 | 1010.5 |
| 20260506222504 | 10 | 229 | 3.2 | 6.4 | 0.46 | 1.07 | 0.10 | 91 | 1010.5 |
| 20260506222006 | 10 | 238 | 1.6 | 11.3 | 0.51 | 1.04 | 0.08 | 91 | 1010.4 |
| 20260506221509 | 10 | 242 | 1.6 | 11.3 | 0.51 | 1.02 | 0.08 | 91 | 1010.4 |
| 20260506221003 | 10 | 241 | 0.0 | 8.0 | 0.51 | 0.99 | 0.03 | 91 | 1010.3 |
| 20260506220503 | 10 | 235 | 3.2 | 8.0 | 0.53 | 0.97 | 0.00 | 91 | 1010.2 |
| 20260506220017 | 10 | 216 | 1.6 | 14.5 | 0.53 | 0.94 | 0.00 | 91 | 1010.2 |
| 20260506220011 | 11 | 244 | 6.4 | 16.1 | 0.51 | 0.71 | 0.71 | 91 | 1009.9 |
| 20260506215505 | 10 | 217 | 3.2 | 14.5 | 0.53 | 0.91 | 0.91 | 91 | 1010.2 |
| 20260506215006 | 10 | 227 | 1.6 | 8.0 | 0.56 | 0.89 | 0.89 | 91 | 1010.2 |
| 20260506214520 | 10 | 265 | 3.2 | 8.0 | 0.58 | 0.84 | 0.84 | 91 | 1010.3 |
| 20260506214009 | 10 | 233 | 1.6 | 8.0 | 0.56 | 0.79 | 0.79 | 91 | 1010.2 |
| 20260506213507 | 10 | 239 | 3.2 | 9.7 | 0.51 | 0.74 | 0.74 | 91 | 1010.1 |
| 20260506213024 | 10 | 266 | 3.2 | 11.3 | 0.46 | 0.66 | 0.66 | 90 | 1010.1 |
| 20260506212507 | 11 | 226 | 1.6 | 11.3 | 0.41 | 0.58 | 0.58 | 91 | 1010.0 |
| 20260506212011 | 11 | 237 | 4.8 | 12.9 | 0.36 | 0.53 | 0.53 | 90 | 1009.9 |
| 20260506211530 | 11 | 250 | 4.8 | 14.5 | 0.36 | 0.51 | 0.51 | 91 | 1009.9 |
| 20260506211003 | 11 | 226 | 4.8 | 14.5 | 0.36 | 0.46 | 0.46 | 90 | 1009.7 |
| 20260506210504 | 11 | 230 | 1.6 | 6.4 | 0.33 | 0.43 | 0.43 | 90 | 1009.6 |
| 20260506210011 | 11 | 232 | 6.4 | 14.5 | 0.15 | 0.23 | 0.20 | 90 | 1009.3 |
| 20260506210009 | 11 | 219 | 1.6 | 8.0 | 0.30 | 0.41 | 0.41 | 90 | 1009.5 |
| 20260506205504 | 11 | 210 | 3.2 | 8.0 | 0.28 | 0.38 | 0.36 | 90 | 1009.7 |
| 20260506205004 | 11 | 252 | 3.2 | 6.4 | 0.23 | 0.33 | 0.30 | 90 | 1009.6 |
| 20260506204518 | 11 | 224 | 1.6 | 11.3 | 0.18 | 0.28 | 0.25 | 89 | 1009.6 |
| 20260506204008 | 11 | 218 | 3.2 | 11.3 | 0.18 | 0.28 | 0.23 | 89 | 1009.6 |
| 20260506203508 | 11 | 253 | 4.8 | 11.3 | 0.18 | 0.28 | 0.20 | 89 | 1009.6 |
| 20260506203021 | 11 | 221 | 4.8 | 14.5 | 0.15 | 0.28 | 0.18 | 89 | 1009.6 |
| 20260506203011 | 11 | 227 | 9.7 | 16.1 | 0.08 | 0.13 | 0.10 | 90 | 1009.1 |
| 20260506202508 | 11 | 213 | 4.8 | 14.5 | 0.13 | 0.28 | 0.18 | 89 | 1009.6 |
| 20260506202008 | 11 | 238 | 6.4 | 16.1 | 0.10 | 0.28 | 0.15 | 89 | 1009.6 |
| 20260506201530 | 11 | 148 | 8.0 | 16.1 | 0.10 | 0.28 | 0.13 | 89 | 1009.6 |
| 20260506201008 | 11 | 248 | 6.4 | 16.1 | 0.08 | 0.28 | 0.10 | 89 | 1009.5 |
| 20260506200509 | 11 | 251 | 4.8 | 16.1 | 0.08 | 0.25 | 0.08 | 89 | 1009.5 |
| 20260506200025 | 11 | 248 | 4.8 | 9.7 | 0.08 | 0.25 | 0.08 | 89 | 1009.5 |
| 20260506200010 | 12 | 229 | 9.7 | 19.3 | 0.05 | 0.23 | 0.05 | 89 | 1008.7 |
| 20260506195509 | 11 | 249 | 3.2 | 11.3 | 0.05 | 0.23 | 0.08 | 89 | 1009.5 |
| 20260506195003 | 11 | 245 | 3.2 | 11.3 | 0.05 | 0.23 | 0.08 | 89 | 1009.4 |
| 20260506194510 | 11 | 234 | 3.2 | 14.5 | 0.03 | 0.23 | 0.05 | 88 | 1009.3 |
| 20260506194009 | 11 | 207 | 4.8 | 14.5 | 0.03 | 0.23 | 0.05 | 88 | 1009.2 |
| 20260506193504 | 11 | 248 | 4.8 | 11.3 | 0.00 | 0.20 | 0.03 | 88 | 1009.1 |
| 20260506193023 | 11 | 237 | 3.2 | 11.3 | 0.00 | 0.20 | 0.03 | 88 | 1009.0 |
| 20260506193010 | 12 | 212 | 3.2 | 19.3 | 0.00 | 0.18 | 0.03 | 87 | 1008.3 |
| 20260506192508 | 11 | 224 | 3.2 | 9.7 | 0.00 | 0.20 | 0.03 | 88 | 1008.9 |
| 20260506192010 | 12 | 213 | 3.2 | 9.7 | 0.00 | 0.20 | 0.03 | 88 | 1008.9 |
| 20260506191524 | 12 | 229 | 3.2 | 9.7 | 0.00 | 0.18 | 0.00 | 88 | 1008.9 |
| 20260506191007 | 12 | 243 | 3.2 | 11.3 | 0.00 | 0.18 | 0.00 | 87 | 1008.9 |
| 20260506190511 | 12 | 208 | 1.6 | 14.5 | 0.00 | 0.20 | 0.00 | 87 | 1008.8 |
| 20260506190028 | 12 | 210 | 4.8 | 14.5 | 0.00 | 0.20 | 0.00 | 87 | 1008.8 |
| 20260506185510 | 12 | 244 | 1.6 | 16.1 | 0.00 | 0.20 | 0.00 | 86 | 1008.7 |
| 20260506185011 | 12 | 214 | 4.8 | 16.1 | 0.00 | 0.20 | 0.00 | 86 | 1008.7 |
| 20260506184527 | 12 | 221 | 6.4 | 16.1 | 0.00 | 0.20 | 0.00 | 86 | 1008.7 |
| 20260506184009 | 12 | 219 | 3.2 | 14.5 | 0.00 | 0.20 | 0.00 | 86 | 1008.6 |
| 20260506183510 | 12 | 251 | 3.2 | 11.3 | 0.00 | 0.20 | 0.00 | 85 | 1008.5 |
| 20260506183013 | 12 | 226 | 4.8 | 11.3 | 0.00 | 0.20 | 0.00 | 85 | 1008.4 |
| 20260506182504 | 12 | 249 | 1.6 | 9.7 | 0.00 | 0.20 | 0.00 | 85 | 1008.3 |
| 20260506182006 | 12 | 213 | 3.2 | 11.3 | 0.00 | 0.20 | 0.00 | 85 | 1008.3 |
| 20260506181519 | 12 | 239 | 1.6 | 11.3 | 0.00 | 0.20 | 0.00 | 85 | 1008.3 |
| 20260506181008 | 12 | 127 | 1.6 | 6.4 | 0.00 | 0.20 | 0.00 | 85 | 1008.3 |
| 20260506180508 | 12 | 213 | 0.0 | 3.2 | 0.00 | 0.20 | 0.00 | 85 | 1008.3 |
| 20260506180025 | 12 | 219 | 0.0 | 1.6 | 0.00 | 0.20 | 0.00 | 86 | 1008.2 |
| 20260506180014 | 13 | 235 | 3.2 | 4.8 | 0.00 | 0.23 | 0.03 | 86 | 1007.3 |
| 20260506175512 | 12 | 219 | 0.0 | 3.2 | 0.00 | 0.20 | 0.00 | 86 | 1008.1 |
| 20260506175008 | 12 | 219 | 0.0 | 4.8 | 0.00 | 0.20 | 0.00 | 85 | 1008.0 |
| 20260506174528 | 12 | 228 | 1.6 | 4.8 | 0.00 | 0.20 | 0.00 | 85 | 1007.9 |
| 20260506174010 | 12 | 212 | 0.0 | 3.2 | 0.00 | 0.20 | 0.00 | 86 | 1007.8 |
| 20260506173510 | 12 | 231 | 1.6 | 8.0 | 0.00 | 0.20 | 0.00 | 85 | 1007.8 |
| 20260506173028 | 12 | 245 | 1.6 | 8.0 | 0.00 | 0.20 | 0.00 | 85 | 1007.7 |
| 20260506173014 | 13 | 221 | 3.2 | 11.3 | 0.00 | 0.23 | 0.03 | 86 | 1006.9 |
| 20260506172509 | 13 | 239 | 1.6 | 8.0 | 0.00 | 0.20 | 0.00 | 85 | 1007.6 |
| 20260506172009 | 13 | 124 | 1.6 | 4.8 | 0.00 | 0.20 | 0.00 | 85 | 1007.5 |
| 20260506171539 | 13 | 110 | 1.6 | 6.4 | 0.00 | 0.20 | 0.00 | 85 | 1007.5 |
| 20260506171005 | 13 | 231 | 1.6 | 6.4 | 0.00 | 0.20 | 0.00 | 85 | 1007.4 |
| 20260506170511 | 13 | 224 | 1.6 | 9.7 | 0.00 | 0.20 | 0.00 | 85 | 1007.5 |
| 20260506170020 | 13 | 217 | 3.2 | 9.7 | 0.00 | 0.20 | 0.00 | 84 | 1007.4 |
| 20260506170014 | 13 | 241 | 3.2 | 11.3 | 0.00 | 0.23 | 0.03 | 85 | 1006.9 |
| 20260506165508 | 13 | 270 | 1.6 | 8.0 | 0.00 | 0.20 | 0.00 | 85 | 1007.4 |
| 20260506165009 | 13 | 255 | 3.2 | 8.0 | 0.00 | 0.20 | 0.00 | 84 | 1007.3 |
| 20260506164524 | 13 | 264 | 0.0 | 4.8 | 0.00 | 0.20 | 0.00 | 85 | 1007.4 |
| 20260506164010 | 13 | 281 | 0.0 | 6.4 | 0.00 | 0.20 | 0.00 | 85 | 1007.4 |
| 20260506163510 | 13 | 239 | 1.6 | 8.0 | 0.00 | 0.20 | 0.00 | 85 | 1007.4 |
| 20260506163027 | 13 | 13 | 0.0 | 8.0 | 0.00 | 0.20 | 0.00 | 85 | 1007.4 |
| 20260506163013 | 13 | 82 | 3.2 | 19.3 | 0.00 | 0.23 | 0.03 | 84 | 1007.0 |
| 20260506162509 | 13 | 230 | 1.6 | 6.4 | 0.00 | 0.20 | 0.00 | 85 | 1007.4 |
| 20260506162007 | 13 | 89 | 1.6 | 6.4 | 0.00 | 0.20 | 0.00 | 85 | 1007.4 |
| 20260506161510 | 13 | 252 | 0.0 | 14.5 | 0.00 | 0.20 | 0.00 | 85 | 1007.4 |
| 20260506161005 | 13 | 120 | 1.6 | 14.5 | 0.00 | 0.20 | 0.00 | 84 | 1007.4 |
| 20260506160507 | 13 | 206 | 1.6 | 16.1 | 0.00 | 0.20 | 0.00 | 84 | 1007.4 |
| 20260506160016 | 13 | 204 | 4.8 | 16.1 | 0.00 | 0.20 | 0.00 | 83 | 1007.5 |
| 20260506160013 | 15 | 238 | 9.7 | 24.1 | 0.00 | 0.23 | 0.03 | 77 | 1007.2 |
| 20260506155508 | 13 | 257 | 3.2 | 9.7 | 0.00 | 0.20 | 0.00 | 83 | 1007.5 |
| 20260506155007 | 13 | 228 | 4.8 | 9.7 | 0.00 | 0.20 | 0.00 | 81 | 1007.5 |
| 20260506154521 | 14 | 224 | 1.6 | 9.7 | 0.00 | 0.20 | 0.00 | 81 | 1007.6 |
| 20260506154009 | 14 | 273 | 3.2 | 14.5 | 0.00 | 0.20 | 0.00 | 80 | 1007.6 |
| 20260506153502 | 14 | 266 | 6.4 | 16.1 | 0.00 | 0.20 | 0.00 | 78 | 1007.5 |
| 20260506153004 | 15 | 230 | 3.2 | 16.1 | 0.00 | 0.20 | 0.00 | 77 | 1007.5 |
| 20260506152504 | 15 | 60 | 4.8 | 14.5 | 0.00 | 0.20 | 0.00 | 76 | 1007.4 |
| 20260506152004 | 15 | 237 | 1.6 | 14.5 | 0.00 | 0.20 | 0.00 | 77 | 1007.3 |
| 20260506151508 | 16 | 247 | 1.6 | 6.4 | 0.00 | 0.20 | 0.00 | 76 | 1007.2 |
| 20260506151004 | 16 | 67 | 0.0 | 4.8 | 0.00 | 0.23 | 0.00 | 76 | 1007.2 |
| 20260506150510 | 16 | 231 | 1.6 | 6.4 | 0.00 | 0.23 | 0.00 | 75 | 1007.1 |
| 20260506150013 | 16 | 224 | 1.6 | 4.8 | 0.00 | 0.23 | 0.03 | 69 | 1006.6 |
| 20260506150010 | 16 | 259 | 1.6 | 8.0 | 0.00 | 0.23 | 0.00 | 74 | 1007.1 |
| 20260506145506 | 16 | 217 | 3.2 | 8.0 | 0.00 | 0.23 | 0.00 | 72 | 1007.1 |
| 20260506145007 | 16 | 209 | 1.6 | 6.4 | 0.00 | 0.23 | 0.00 | 74 | 1007.0 |
| 20260506144516 | 16 | 229 | 1.6 | 4.8 | 0.00 | 0.23 | 0.00 | 72 | 1006.9 |
| 20260506144009 | 16 | 258 | 1.6 | 4.8 | 0.00 | 0.23 | 0.00 | 71 | 1006.9 |
| 20260506143507 | 16 | 216 | 1.6 | 4.8 | 0.00 | 0.23 | 0.00 | 68 | 1006.8 |
| 20260506143024 | 16 | 233 | 1.6 | 3.2 | 0.00 | 0.23 | 0.00 | 67 | 1006.8 |
| 20260506143013 | 16 | 235 | 3.2 | 8.0 | 0.00 | 0.23 | 0.03 | 68 | 1006.6 |
| 20260506142509 | 16 | 217 | 0.0 | 6.4 | 0.00 | 0.23 | 0.00 | 67 | 1006.8 |
| 20260506142010 | 16 | 231 | 3.2 | 6.4 | 0.00 | 0.23 | 0.00 | 67 | 1006.7 |
| 20260506141504 | 16 | 227 | 1.6 | 3.2 | 0.00 | 0.23 | 0.00 | 67 | 1006.8 |
| 20260506141004 | 16 | 233 | 0.0 | 4.8 | 0.00 | 0.23 | 0.00 | 69 | 1006.8 |
| 20260506140504 | 16 | 239 | 1.6 | 4.8 | 0.00 | 0.23 | 0.00 | 68 | 1006.7 |
| 20260506140016 | 16 | 228 | 0.0 | 3.2 | 0.00 | 0.23 | 0.00 | 67 | 1006.7 |
| 20260506140012 | 16 | 246 | 0.0 | 4.8 | 0.00 | 0.23 | 0.03 | 66 | 1006.6 |
| 20260506135506 | 16 | 220 | 1.6 | 3.2 | 0.00 | 0.23 | 0.00 | 67 | 1006.7 |
| 20260506135005 | 16 | 250 | 1.6 | 3.2 | 0.00 | 0.23 | 0.00 | 67 | 1006.8 |
| 20260506134514 | 16 | 238 | 1.6 | 3.2 | 0.00 | 0.23 | 0.00 | 67 | 1006.8 |
| 20260506134007 | 16 | 234 | 0.0 | 3.2 | 0.00 | 0.23 | 0.00 | 67 | 1006.8 |
| 20260506133506 | 16 | 236 | 0.0 | 3.2 | 0.00 | 0.23 | 0.00 | 66 | 1006.8 |
| 20260506133027 | 16 | 233 | 0.0 | 3.2 | 0.00 | 0.23 | 0.00 | 66 | 1006.8 |
| 20260506133012 | 18 | 204 | 4.8 | 11.3 | 0.00 | 0.23 | 0.03 | 64 | 1006.7 |
| 20260506132507 | 16 | 162 | 0.0 | 6.4 | 0.00 | 0.23 | 0.00 | 67 | 1006.8 |
| 20260506132007 | 17 | 216 | 3.2 | 6.4 | 0.00 | 0.23 | 0.00 | 65 | 1006.8 |
| 20260506131521 | 17 | 219 | 3.2 | 6.4 | 0.00 | 0.23 | 0.00 | 65 | 1006.8 |